Time;durP1;ratioP1;P1;durP2;ratioP2;P2;SDS_P1;SDS_P2;PMS_P1;PMS_P2;Temp;Humidity;BMP_temperature;BMP_pressure;BME280_temperature;BME280_humidity;BME280_pressure;Samples;Min_cycle;Max_cycle;Signal;HPM_P1;HPM_P2
2023/12/05 00:02:19;;;;;;;14.30;11.20;;;0.70;40.70;;;;;;10394860;28;20281;-75
2023/12/05 00:07:25;;;;;;;11.70;10.23;;;0.60;40.70;;;;;;10389458;28;20244;-75
2023/12/05 00:12:28;;;;;;;11.87;10.17;;;0.60;40.60;;;;;;10383661;28;20279;-75
2023/12/05 00:17:33;;;;;;;11.17;9.77;;;0.60;40.70;;;;;;10392146;28;20230;-75
2023/12/05 00:22:37;;;;;;;15.17;11.50;;;0.70;40.90;;;;;;10380461;28;20311;-75
2023/12/05 00:27:40;;;;;;;13.37;10.17;;;0.70;40.90;;;;;;10392756;28;20347;-75
2023/12/05 00:32:45;;;;;;;21.07;14.63;;;0.80;40.80;;;;;;10385889;28;20214;-74
2023/12/05 00:37:48;;;;;;;16.70;12.77;;;0.70;40.70;;;;;;10383912;28;20260;-74
2023/12/05 00:42:51;;;;;;;13.57;10.63;;;0.70;40.60;;;;;;10387810;28;20240;-75
2023/12/05 00:47:56;;;;;;;12.70;9.57;;;0.60;40.60;;;;;;10388933;28;20327;-75
2023/12/05 00:52:59;;;;;;;11.03;8.90;;;0.60;40.80;;;;;;10391351;28;20226;-74
2023/12/05 00:58:03;;;;;;;11.33;10.10;;;0.60;40.80;;;;;;10392510;28;20225;-75
2023/12/05 01:03:07;;;;;;;11.30;10.07;;;0.70;40.90;;;;;;10380183;28;20238;-75
2023/12/05 01:08:10;;;;;;;11.33;9.50;;;0.70;40.80;;;;;;10390399;28;20327;-75
2023/12/05 01:13:13;;;;;;;10.40;9.30;;;0.80;40.90;;;;;;10385233;28;20760;-75
2023/12/05 01:18:18;;;;;;;10.67;9.57;;;0.80;40.90;;;;;;10386833;28;20292;-75
2023/12/05 01:23:22;;;;;;;11.40;9.73;;;0.80;40.80;;;;;;10386379;28;20768;-75
2023/12/05 01:28:25;;;;;;;11.13;9.17;;;0.90;40.80;;;;;;10387827;28;20240;-75
2023/12/05 01:33:29;;;;;;;11.27;10.07;;;0.90;40.90;;;;;;10387790;28;20229;-75
2023/12/05 01:38:33;;;;;;;13.10;10.07;;;0.90;41.00;;;;;;10387419;28;20228;-75
2023/12/05 01:43:36;;;;;;;9.20;7.53;;;0.90;40.90;;;;;;10383130;28;20800;-75
2023/12/05 01:48:41;;;;;;;12.37;10.03;;;1.00;41.10;;;;;;10391539;28;20250;-75
2023/12/05 01:53:45;;;;;;;11.70;9.73;;;1.00;41.10;;;;;;10385277;28;20604;-74
2023/12/05 01:58:49;;;;;;;13.67;10.57;;;1.20;41.20;;;;;;10388415;28;20237;-75
2023/12/05 02:03:53;;;;;;;11.17;9.77;;;1.10;41.10;;;;;;10384846;28;20236;-74
2023/12/05 02:08:58;;;;;;;11.60;10.13;;;1.20;41.30;;;;;;10389991;28;20269;-75
2023/12/05 02:14:04;;;;;;;10.53;9.40;;;1.30;41.30;;;;;;10383066;28;20631;-74
2023/12/05 02:19:27;;;;;;;11.93;10.50;;;1.20;41.20;;;;;;10382689;28;20237;-75
2023/12/05 02:24:40;;;;;;;12.80;11.17;;;1.20;41.50;;;;;;10378220;28;20229;-74
2023/12/05 02:29:50;;;;;;;13.00;10.83;;;1.30;41.70;;;;;;10383012;28;20237;-75
2023/12/05 02:34:53;;;;;;;11.37;10.17;;;1.30;41.60;;;;;;10379637;28;20226;-75
2023/12/05 02:40:04;;;;;;;12.03;10.60;;;1.40;41.60;;;;;;10391267;28;20743;-75
2023/12/05 02:45:16;;;;;;;14.50;11.67;;;1.40;42.00;;;;;;10394216;28;20325;-75
2023/12/05 02:50:20;;;;;;;13.07;11.33;;;1.40;42.20;;;;;;10388939;28;20237;-75
2023/12/05 02:55:23;;;;;;;12.00;10.67;;;1.50;42.00;;;;;;10391001;28;20796;-74
2023/12/05 03:00:28;;;;;;;11.53;10.33;;;1.50;42.20;;;;;;10388443;28;20364;-75
2023/12/05 03:05:31;;;;;;;11.77;9.77;;;1.60;42.40;;;;;;10388017;28;20233;-75
2023/12/05 03:10:34;;;;;;;11.90;10.70;;;1.70;42.40;;;;;;10389571;28;20739;-75
2023/12/05 03:15:39;;;;;;;11.97;10.27;;;1.70;42.40;;;;;;10393588;28;20244;-75
2023/12/05 03:20:42;;;;;;;12.80;10.50;;;1.80;42.70;;;;;;10389668;28;20230;-75
2023/12/05 03:25:46;;;;;;;12.17;10.63;;;1.90;42.70;;;;;;10387984;28;20240;-75
2023/12/05 03:30:51;;;;;;;11.90;10.70;;;2.00;42.70;;;;;;10390548;28;20237;-75
2023/12/05 03:35:54;;;;;;;10.90;9.40;;;2.00;42.90;;;;;;10389721;28;20245;-75
2023/12/05 03:40:57;;;;;;;12.27;11.07;;;2.10;42.70;;;;;;10386971;28;20727;-75
2023/12/05 03:46:02;;;;;;;14.67;12.73;;;2.10;42.70;;;;;;10391567;28;20289;-75
2023/12/05 03:51:06;;;;;;;12.40;11.03;;;2.20;42.90;;;;;;10389636;28;20234;-75
2023/12/05 03:56:10;;;;;;;12.40;11.10;;;2.20;42.70;;;;;;10387233;28;20238;-75
2023/12/05 04:01:14;;;;;;;12.40;11.10;;;2.30;42.70;;;;;;10384731;28;20240;-75
2023/12/05 04:06:21;;;;;;;11.77;10.57;;;2.40;43.00;;;;;;10386688;28;20251;-75
2023/12/05 04:11:33;;;;;;;13.00;11.53;;;2.30;43.00;;;;;;10385320;28;20481;-75
2023/12/05 04:16:38;;;;;;;12.63;11.33;;;2.40;43.70;;;;;;10384603;28;20234;-74
2023/12/05 04:21:41;;;;;;;12.37;11.07;;;2.40;43.20;;;;;;10383875;28;20711;-75
2023/12/05 04:26:44;;;;;;;12.80;11.53;;;2.40;43.10;;;;;;10387453;28;20234;-75
2023/12/05 04:31:49;;;;;;;12.57;9.70;;;2.50;43.20;;;;;;10385449;28;20723;-75
2023/12/05 04:36:52;;;;;;;13.43;11.87;;;2.50;43.30;;;;;;10385364;28;20239;-75
2023/12/05 04:41:55;;;;;;;14.37;12.13;;;2.50;43.10;;;;;;10387524;28;20232;-75
2023/12/05 04:47:01;;;;;;;17.87;14.07;;;2.60;43.10;;;;;;10383631;28;20657;-75
2023/12/05 04:52:05;;;;;;;17.90;14.20;;;2.60;43.30;;;;;;10388315;28;20230;-73
2023/12/05 04:57:08;;;;;;;12.77;11.20;;;2.70;43.30;;;;;;10366185;28;20325;-73
2023/12/05 05:02:14;;;;;;;13.30;11.87;;;2.70;43.30;;;;;;10383006;28;20236;-73
2023/12/05 05:07:17;;;;;;;12.97;11.30;;;2.80;43.60;;;;;;10406658;28;20295;-73
2023/12/05 05:12:20;;;;;;;13.03;11.60;;;2.80;43.90;;;;;;10406666;28;20321;-73
2023/12/05 05:17:25;;;;;;;12.93;10.63;;;2.80;43.30;;;;;;10405498;28;20662;-73
2023/12/05 05:22:28;;;;;;;10.67;9.57;;;2.90;43.40;;;;;;10406057;28;20240;-73
2023/12/05 05:27:31;;;;;;;11.13;10.03;;;2.90;43.30;;;;;;10405715;28;20229;-73
2023/12/05 05:32:36;;;;;;;11.97;10.63;;;3.00;43.30;;;;;;10405353;28;20237;-73
2023/12/05 05:37:39;;;;;;;11.50;10.33;;;3.00;43.40;;;;;;10404016;28;20229;-72
2023/12/05 05:42:42;;;;;;;12.90;11.53;;;3.00;43.10;;;;;;10405082;28;20229;-73
2023/12/05 05:47:47;;;;;;;13.00;11.70;;;3.00;43.10;;;;;;10405317;28;20264;-73
2023/12/05 05:52:52;;;;;;;13.10;11.80;;;3.00;43.10;;;;;;10405311;28;20268;-72
2023/12/05 05:57:56;;;;;;;14.70;13.17;;;3.00;42.90;;;;;;10405205;28;20936;-72
2023/12/05 06:03:00;;;;;;;14.67;12.80;;;3.00;42.70;;;;;;10405001;28;20244;-72
2023/12/05 06:08:04;;;;;;;14.60;13.10;;;3.00;42.50;;;;;;10404562;28;20244;-72
2023/12/05 06:13:07;;;;;;;14.93;13.37;;;3.00;42.10;;;;;;10407932;28;20268;-72
2023/12/05 06:18:15;;;;;;;14.93;11.53;;;2.90;42.00;;;;;;10412874;28;20317;-72
2023/12/05 06:23:18;;;;;;;14.47;12.97;;;2.90;44.60;;;;;;10410370;28;20233;-71
2023/12/05 06:28:22;;;;;;;16.07;14.37;;;3.10;46.60;;;;;;10411570;28;20352;-71
2023/12/05 06:33:26;;;;;;;17.67;15.77;;;3.40;44.80;;;;;;10406598;28;20250;-71
2023/12/05 06:38:30;;;;;;;18.77;16.27;;;3.40;43.40;;;;;;10410696;28;20233;-71
2023/12/05 06:43:33;;;;;;;17.53;14.13;;;3.40;42.60;;;;;;10406976;28;20283;-73
2023/12/05 06:48:37;;;;;;;18.53;14.97;;;3.30;42.60;;;;;;10394929;28;20232;-73
2023/12/05 06:53:41;;;;;;;14.77;13.27;;;3.10;42.60;;;;;;10393407;28;20703;-73
2023/12/05 06:58:49;;;;;;;13.53;12.20;;;3.10;42.30;;;;;;10397635;28;20316;-73
2023/12/05 07:03:54;;;;;;;12.90;11.57;;;3.10;42.40;;;;;;10389495;28;20236;-72
2023/12/05 07:09:00;;;;;;;13.83;12.37;;;3.00;42.30;;;;;;10394085;28;20324;-72
2023/12/05 07:14:03;;;;;;;17.50;13.70;;;3.00;42.30;;;;;;10396446;28;20253;-73
2023/12/05 07:19:07;;;;;;;14.20;12.80;;;3.00;42.20;;;;;;10398601;28;20238;-73
2023/12/05 07:24:11;;;;;;;14.37;12.97;;;3.00;42.20;;;;;;10394142;28;20234;-72
2023/12/05 07:29:14;;;;;;;13.87;12.47;;;2.90;42.00;;;;;;10395733;28;20244;-72
2023/12/05 07:34:18;;;;;;;13.57;12.17;;;2.80;42.00;;;;;;10402549;28;20240;-73
2023/12/05 07:39:22;;;;;;;15.20;13.60;;;2.80;42.20;;;;;;10393585;28;20802;-72
2023/12/05 07:44:25;;;;;;;14.80;13.20;;;2.90;42.40;;;;;;10393410;28;20249;-72
2023/12/05 07:49:29;;;;;;;14.97;13.43;;;2.90;42.40;;;;;;10399584;28;20225;-72
2023/12/05 07:54:32;;;;;;;14.60;13.10;;;2.90;42.50;;;;;;10401937;28;20233;-72
2023/12/05 07:59:36;;;;;;;15.40;13.90;;;3.00;42.50;;;;;;10399022;28;20244;-72
2023/12/05 08:04:41;;;;;;;17.63;15.73;;;3.00;42.60;;;;;;10396706;28;20218;-72
2023/12/05 08:09:45;;;;;;;19.03;15.93;;;3.00;42.80;;;;;;10398065;28;20226;-72
2023/12/05 08:14:48;;;;;;;19.07;16.87;;;3.20;43.00;;;;;;10401528;28;20746;-72
2023/12/05 08:19:53;;;;;;;19.50;17.50;;;3.30;43.20;;;;;;10396687;28;20234;-72
2023/12/05 08:24:56;;;;;;;18.77;16.73;;;3.20;43.70;;;;;;10386245;28;20321;-72
2023/12/05 08:30:01;;;;;;;17.63;15.83;;;3.40;44.00;;;;;;10383374;28;20242;-72
2023/12/05 08:35:07;;;;;;;15.43;13.83;;;3.80;44.10;;;;;;10394167;28;20253;-72
2023/12/05 08:40:12;;;;;;;15.13;13.57;;;3.80;43.80;;;;;;10391888;28;20246;-72
2023/12/05 08:45:15;;;;;;;14.77;13.23;;;4.00;43.60;;;;;;10392033;28;20229;-72
2023/12/05 08:50:20;;;;;;;16.43;14.73;;;4.10;43.30;;;;;;10388562;28;20245;-72
2023/12/05 08:55:23;;;;;;;19.47;16.60;;;4.20;43.30;;;;;;10391260;28;20240;-72
2023/12/05 09:00:26;;;;;;;19.83;17.30;;;4.30;43.30;;;;;;10389716;28;20317;-72
2023/12/05 09:05:31;;;;;;;21.10;18.07;;;4.30;43.20;;;;;;10385443;28;20234;-72
2023/12/05 09:10:34;;;;;;;19.90;17.67;;;4.40;43.30;;;;;;10390710;28;20541;-72
2023/12/05 09:15:37;;;;;;;21.30;18.90;;;4.50;43.30;;;;;;10389281;28;20233;-72
2023/12/05 09:20:43;;;;;;;20.17;17.47;;;4.60;43.70;;;;;;10392476;28;20228;-72
2023/12/05 09:25:46;;;;;;;19.20;17.23;;;4.70;43.90;;;;;;10384927;28;20250;-73
2023/12/05 09:30:49;;;;;;;17.43;15.63;;;4.90;44.00;;;;;;10382935;28;20851;-72
2023/12/05 09:35:54;;;;;;;17.80;15.87;;;5.10;44.10;;;;;;10389312;28;20377;-72
2023/12/05 09:40:58;;;;;;;18.60;16.10;;;5.30;44.30;;;;;;10387569;28;20233;-72
2023/12/05 09:46:01;;;;;;;18.60;16.50;;;5.50;44.30;;;;;;10387191;28;20321;-73
2023/12/05 09:51:07;;;;;;;18.00;15.13;;;5.80;44.30;;;;;;10385811;28;20284;-73
2023/12/05 09:56:11;;;;;;;15.47;13.87;;;6.00;44.30;;;;;;10389400;28;20295;-73
2023/12/05 11:25:24;;;;;;;8.90;8.03;;;7.90;42.50;;;;;;10334670;28;20230;-73
2023/12/05 11:30:48;;;;;;;9.13;8.07;;;8.00;42.60;;;;;;10359814;28;20234;-74
2023/12/05 11:36:10;;;;;;;9.67;8.77;;;8.10;42.50;;;;;;10349664;28;20738;-73
2023/12/05 11:41:17;;;;;;;9.50;8.60;;;8.20;42.50;;;;;;10353160;28;20233;-75
2023/12/05 11:46:20;;;;;;;10.03;9.13;;;8.30;42.50;;;;;;10341485;28;20290;-74
2023/12/05 11:51:52;;;;;;;9.77;8.73;;;8.40;42.60;;;;;;10094814;29;20558;-74
2023/12/05 11:57:13;;;;;;;9.00;8.17;;;8.40;42.20;;;;;;10282516;28;20230;-74
2023/12/05 12:02:19;;;;;;;9.50;8.70;;;8.50;42.10;;;;;;10337498;28;20752;-75
2023/12/05 12:07:22;;;;;;;10.50;9.17;;;8.50;42.00;;;;;;10365945;28;20240;-74
2023/12/05 12:12:27;;;;;;;10.43;9.37;;;8.60;42.00;;;;;;10347089;28;20230;-75
2023/12/05 12:17:30;;;;;;;11.13;10.13;;;8.60;41.80;;;;;;10348637;28;20575;-75
2023/12/05 12:22:33;;;;;;;10.83;9.87;;;8.60;41.60;;;;;;10361013;28;20226;-74
2023/12/05 12:27:39;;;;;;;10.00;9.10;;;8.60;41.60;;;;;;10398425;28;20952;-75
2023/12/05 12:32:56;;;;;;;13.00;11.70;;;8.60;41.40;;;;;;10423192;28;20242;-74
2023/12/05 12:38:01;;;;;;;10.50;9.50;;;8.60;40.90;;;;;;10422483;28;20245;-74
2023/12/05 12:43:05;;;;;;;11.67;10.57;;;8.60;41.10;;;;;;10422080;28;20225;-74
2023/12/05 12:48:09;;;;;;;13.17;11.87;;;8.60;40.90;;;;;;10430051;28;20240;-72
2023/12/05 12:53:12;;;;;;;13.03;11.73;;;8.50;41.20;;;;;;10445020;28;20256;-72
2023/12/05 12:58:18;;;;;;;11.10;10.07;;;8.50;41.40;;;;;;10438549;28;20255;-74
2023/12/05 13:03:21;;;;;;;10.87;9.77;;;8.30;41.50;;;;;;10439282;28;20335;-74
2023/12/05 13:08:24;;;;;;;11.07;9.97;;;8.30;41.60;;;;;;10425501;28;20229;-74
2023/12/05 13:13:29;;;;;;;10.20;9.20;;;8.30;41.60;;;;;;10419630;28;20830;-74
2023/12/05 13:18:42;;;;;;;11.30;9.70;;;8.30;41.70;;;;;;10420663;28;20225;-74
2023/12/05 13:23:45;;;;;;;11.17;10.10;;;8.20;40.90;;;;;;10421164;28;20236;-74
2023/12/05 13:28:50;;;;;;;12.27;11.07;;;8.20;40.70;;;;;;10426478;28;20233;-75
2023/12/05 13:33:54;;;;;;;11.33;10.23;;;8.10;40.40;;;;;;10425585;28;20267;-75
2023/12/05 13:38:57;;;;;;;11.23;10.13;;;7.90;40.60;;;;;;10427306;28;20248;-75
2023/12/05 13:44:02;;;;;;;11.67;10.57;;;7.80;41.10;;;;;;10425945;28;20236;-75
2023/12/05 13:49:05;;;;;;;9.57;8.73;;;7.80;41.30;;;;;;10429901;28;20778;-74
2023/12/05 13:54:09;;;;;;;11.17;10.03;;;7.70;41.50;;;;;;10419440;28;20228;-74
2023/12/05 13:59:13;;;;;;;11.37;10.27;;;7.70;41.60;;;;;;10432221;28;20237;-75
2023/12/05 14:04:18;;;;;;;8.50;7.77;;;7.70;41.70;;;;;;10420717;28;20316;-75
2023/12/05 14:09:21;;;;;;;8.00;7.27;;;7.60;41.80;;;;;;10440405;28;20324;-74
2023/12/05 14:14:28;;;;;;;8.80;7.90;;;7.60;42.90;;;;;;10434854;28;20990;-75
2023/12/05 14:19:32;;;;;;;8.00;7.30;;;7.60;42.30;;;;;;10426920;28;20228;-75
2023/12/05 14:24:35;;;;;;;10.90;8.33;;;7.60;42.00;;;;;;10431581;28;20232;-75
2023/12/05 14:29:40;;;;;;;9.20;8.33;;;7.60;42.10;;;;;;10434280;28;20291;-76
2023/12/05 14:34:43;;;;;;;6.70;6.07;;;7.60;42.40;;;;;;10439465;28;20267;-76
2023/12/05 14:39:47;;;;;;;10.90;9.87;;;7.60;43.80;;;;;;10445282;28;20228;-75
2023/12/05 14:44:51;;;;;;;14.37;11.60;;;7.70;43.10;;;;;;10431543;28;20248;-75
2023/12/05 14:49:55;;;;;;;14.73;13.23;;;7.60;42.40;;;;;;10438937;28;20225;-75
2023/12/05 14:54:58;;;;;;;12.80;11.23;;;7.60;42.10;;;;;;10435716;28;20815;-75
2023/12/05 15:00:04;;;;;;;10.77;9.53;;;7.60;41.70;;;;;;10439535;28;20232;-75
2023/12/05 15:05:07;;;;;;;9.63;8.73;;;7.50;41.10;;;;;;10435454;28;20307;-75
2023/12/05 15:10:11;;;;;;;12.43;9.43;;;7.40;41.10;;;;;;10439202;28;20226;-75
2023/12/05 15:15:15;;;;;;;11.67;9.23;;;7.30;41.00;;;;;;10438864;28;20252;-75
2023/12/05 15:20:18;;;;;;;9.33;8.00;;;7.20;40.50;;;;;;10435030;28;20250;-75
2023/12/05 15:25:26;;;;;;;12.13;10.83;;;7.00;40.60;;;;;;10441426;28;20229;-75
2023/12/05 15:30:30;;;;;;;12.17;10.73;;;6.80;40.70;;;;;;10437420;28;20241;-75
2023/12/05 15:35:34;;;;;;;15.87;14.20;;;6.70;40.70;;;;;;10426424;28;20782;-75
2023/12/05 15:40:37;;;;;;;14.90;13.10;;;6.60;41.00;;;;;;10435633;28;20258;-75
2023/12/05 15:45:42;;;;;;;14.83;13.27;;;6.50;41.20;;;;;;10434438;28;20883;-75
2023/12/05 15:50:45;;;;;;;16.30;14.37;;;6.40;41.20;;;;;;10435283;28;20333;-75
2023/12/05 15:55:48;;;;;;;21.00;18.60;;;6.40;41.30;;;;;;10436020;28;20253;-75
2023/12/05 16:00:53;;;;;;;15.17;13.17;;;6.40;41.10;;;;;;10437772;28;20228;-75
2023/12/05 16:06:02;;;;;;;12.43;11.13;;;6.30;40.90;;;;;;10441216;28;20236;-75
2023/12/05 16:11:05;;;;;;;15.70;14.00;;;6.10;41.90;;;;;;10436185;28;20240;-75
2023/12/05 16:16:10;;;;;;;17.00;15.40;;;6.10;42.10;;;;;;10436517;28;20244;-75
2023/12/05 16:21:13;;;;;;;14.53;13.03;;;6.00;41.60;;;;;;10433870;28;20231;-75
2023/12/05 16:26:16;;;;;;;16.13;14.53;;;5.90;41.50;;;;;;10433506;28;20234;-75
2023/12/05 16:31:21;;;;;;;15.97;14.27;;;5.70;41.70;;;;;;10438818;28;20225;-75
2023/12/05 16:36:27;;;;;;;20.50;18.30;;;5.60;42.00;;;;;;10439910;28;20240;-75
2023/12/05 16:41:33;;;;;;;32.57;25.80;;;5.60;41.90;;;;;;10446141;28;20256;-74
2023/12/05 16:46:38;;;;;;;20.33;18.23;;;5.60;41.90;;;;;;10460530;28;20272;-73
2023/12/05 16:51:41;;;;;;;20.37;18.27;;;5.60;41.80;;;;;;10460184;28;20236;-74
2023/12/05 16:56:44;;;;;;;23.27;20.93;;;5.60;41.50;;;;;;10452630;28;20824;-74
2023/12/05 17:01:49;;;;;;;20.30;18.20;;;5.60;41.60;;;;;;10460376;28;20309;-74
2023/12/05 17:06:54;;;;;;;20.73;18.73;;;5.70;41.70;;;;;;10457253;28;20238;-74
2023/12/05 17:11:57;;;;;;;22.27;20.07;;;5.70;41.70;;;;;;10452324;28;20225;-75
2023/12/05 17:17:03;;;;;;;25.07;22.57;;;5.70;41.70;;;;;;10455232;28;20320;-74
2023/12/05 17:22:06;;;;;;;20.07;18.03;;;5.70;41.70;;;;;;10467391;28;20683;-74
2023/12/05 17:27:10;;;;;;;19.83;17.70;;;5.70;41.70;;;;;;10449907;28;20264;-74
2023/12/05 17:32:16;;;;;;;16.87;15.10;;;5.60;41.50;;;;;;10453391;28;20324;-74
2023/12/05 17:37:20;;;;;;;16.57;14.97;;;5.60;41.50;;;;;;10449822;28;20233;-74
2023/12/05 17:42:23;;;;;;;16.13;14.53;;;5.60;41.30;;;;;;10444839;28;20224;-74
2023/12/05 17:47:28;;;;;;;19.57;17.57;;;5.60;41.20;;;;;;10449703;28;20987;-74
2023/12/05 17:52:31;;;;;;;20.50;18.50;;;5.50;41.10;;;;;;10441517;28;20726;-74
2023/12/05 17:57:34;;;;;;;17.73;15.93;;;5.50;41.20;;;;;;10445483;28;20249;-74
2023/12/05 18:02:39;;;;;;;16.27;14.67;;;5.40;41.20;;;;;;10451264;28;20295;-74
2023/12/05 18:07:43;;;;;;;16.80;15.20;;;5.40;41.20;;;;;;10452683;28;20228;-75
2023/12/05 18:13:00;;;;;;;16.67;15.13;;;5.30;41.20;;;;;;10454472;28;20773;-75
2023/12/05 18:18:05;;;;;;;19.40;17.50;;;5.30;41.20;;;;;;10446543;28;20241;-75
2023/12/05 18:23:08;;;;;;;20.00;17.97;;;5.30;41.10;;;;;;10448879;28;20283;-74
2023/12/05 18:28:11;;;;;;;20.17;17.93;;;5.20;41.10;;;;;;10456995;28;20725;-74
2023/12/05 18:33:16;;;;;;;20.00;17.03;;;5.20;41.00;;;;;;10450475;28;20229;-74
2023/12/05 18:38:19;;;;;;;15.43;13.83;;;5.20;40.90;;;;;;10448036;28;20255;-74
2023/12/05 18:43:23;;;;;;;15.83;13.70;;;5.10;40.80;;;;;;10449791;28;20675;-74
2023/12/05 18:48:28;;;;;;;13.40;12.00;;;5.10;40.80;;;;;;10447812;28;20630;-75
2023/12/05 18:53:31;;;;;;;15.30;13.70;;;5.00;40.80;;;;;;10451840;28;20237;-74
2023/12/05 18:58:34;;;;;;;13.87;12.53;;;5.00;40.80;;;;;;10450949;28;20927;-75
2023/12/05 19:03:39;;;;;;;14.53;13.00;;;4.90;40.70;;;;;;10451335;28;20306;-75
2023/12/05 19:08:42;;;;;;;15.73;14.13;;;4.90;40.70;;;;;;10449583;28;20723;-74
2023/12/05 19:13:46;;;;;;;17.97;15.47;;;4.80;40.40;;;;;;10452771;28;20233;-75
2023/12/05 19:18:50;;;;;;;18.73;16.73;;;4.60;40.40;;;;;;10441936;28;20244;-75
2023/12/05 19:23:54;;;;;;;23.30;16.47;;;4.50;40.60;;;;;;10443380;28;20263;-74
2023/12/05 19:28:58;;;;;;;28.57;12.90;;;4.40;40.50;;;;;;10442549;28;20232;-74
2023/12/05 19:34:03;;;;;;;14.17;12.67;;;4.20;40.50;;;;;;10445709;28;20229;-74
2023/12/05 19:39:07;;;;;;;26.07;17.43;;;4.10;40.70;;;;;;10445495;28;20225;-75
2023/12/05 19:44:11;;;;;;;33.37;22.37;;;4.10;40.80;;;;;;10444134;28;21001;-74
2023/12/05 19:49:15;;;;;;;24.03;16.57;;;4.00;40.60;;;;;;10447343;28;20868;-74
2023/12/05 19:54:19;;;;;;;22.27;17.47;;;4.00;40.60;;;;;;10447060;28;20252;-74
2023/12/05 19:59:22;;;;;;;20.03;16.70;;;4.00;40.90;;;;;;10448155;28;20322;-74
2023/12/05 20:04:26;;;;;;;16.53;14.83;;;4.00;40.80;;;;;;10446727;28;20237;-74
2023/12/05 20:09:30;;;;;;;16.57;15.00;;;3.80;40.80;;;;;;10446674;28;20290;-75
2023/12/05 20:14:33;;;;;;;15.80;14.27;;;3.60;41.00;;;;;;10451377;28;20758;-74
2023/12/05 20:19:37;;;;;;;13.43;12.13;;;3.50;41.20;;;;;;10445960;28;20224;-75
2023/12/05 20:24:41;;;;;;;13.17;11.87;;;3.50;41.00;;;;;;10450800;28;20240;-74
2023/12/05 20:29:44;;;;;;;21.97;16.13;;;3.40;40.60;;;;;;10441831;28;20613;-74
2023/12/05 20:41:15;;;;;;;76.43;36.80;;;3.30;40.20;;;;;;10407120;28;20312;-74
2023/12/05 20:46:18;;;;;;;31.53;20.80;;;3.30;40.40;;;;;;10432213;28;20403;-74
2023/12/05 20:51:22;;;;;;;30.63;20.57;;;3.10;40.30;;;;;;10451551;28;20635;-74
2023/12/05 20:56:26;;;;;;;27.40;20.37;;;3.10;40.30;;;;;;10446776;28;20678;-74
2023/12/05 21:01:30;;;;;;;19.33;16.00;;;3.20;40.10;;;;;;10444008;28;20239;-74
2023/12/05 21:06:33;;;;;;;13.37;12.07;;;3.10;40.00;;;;;;10451487;28;20243;-74
2023/12/05 21:11:37;;;;;;;11.10;10.00;;;3.10;40.10;;;;;;10455789;28;20236;-74
2023/12/05 21:16:40;;;;;;;11.87;10.67;;;3.10;40.50;;;;;;10448081;28;20232;-74
2023/12/05 21:21:44;;;;;;;15.57;13.97;;;2.90;40.20;;;;;;10450314;28;20692;-74
2023/12/05 21:26:48;;;;;;;10.90;9.80;;;2.80;40.60;;;;;;10447749;28;20224;-74
2023/12/05 21:31:52;;;;;;;11.23;9.07;;;2.50;40.70;;;;;;10449150;28;20256;-75
2023/12/05 21:36:55;;;;;;;8.53;7.73;;;2.40;41.00;;;;;;10448790;28;20810;-74
2023/12/05 21:42:00;;;;;;;9.60;8.60;;;2.40;41.20;;;;;;10448496;28;20753;-74
2023/12/05 21:47:03;;;;;;;9.67;8.70;;;2.40;41.20;;;;;;10451250;28;20232;-75
2023/12/05 21:52:07;;;;;;;8.27;7.33;;;2.40;41.10;;;;;;10449073;28;20259;-74
2023/12/05 21:57:11;;;;;;;8.30;7.47;;;2.50;41.10;;;;;;10449192;28;20294;-74
2023/12/05 22:02:15;;;;;;;8.03;7.23;;;2.50;41.20;;;;;;10439703;28;20304;-74
2023/12/05 22:07:18;;;;;;;8.73;7.77;;;2.60;41.50;;;;;;10450442;28;20344;-74
2023/12/05 22:12:23;;;;;;;8.77;7.13;;;2.60;41.40;;;;;;10448333;28;20233;-74
2023/12/05 22:17:27;;;;;;;8.03;6.87;;;2.70;41.30;;;;;;10443416;28;20264;-74
2023/12/05 22:22:30;;;;;;;7.13;6.40;;;2.70;41.20;;;;;;10450155;28;20264;-74
2023/12/05 22:27:35;;;;;;;8.53;6.20;;;2.60;41.30;;;;;;10450730;28;20259;-74
2023/12/05 22:32:38;;;;;;;8.50;5.97;;;2.80;41.50;;;;;;10448935;28;20231;-73
2023/12/05 22:37:41;;;;;;;9.00;6.67;;;2.60;41.40;;;;;;10448546;28;20232;-74
2023/12/05 22:42:47;;;;;;;8.30;6.83;;;2.60;41.20;;;;;;10450705;28;20252;-74
2023/12/05 22:47:50;;;;;;;9.77;5.97;;;2.40;41.40;;;;;;10447698;28;20221;-74
2023/12/05 22:52:54;;;;;;;6.93;5.83;;;2.30;41.80;;;;;;10450179;28;20237;-74
2023/12/05 22:57:58;;;;;;;6.40;5.70;;;2.20;42.30;;;;;;10458531;28;20252;-74
2023/12/05 23:03:02;;;;;;;5.23;4.57;;;2.30;42.80;;;;;;10445628;28;20225;-74
2023/12/05 23:08:05;;;;;;;6.13;5.50;;;2.30;42.80;;;;;;10459651;28;20229;-74
2023/12/05 23:19:32;;;;;;;6.20;4.37;;;2.50;43.50;;;;;;10390784;28;20225;-76
2023/12/05 23:24:36;;;;;;;4.90;3.53;;;2.70;43.30;;;;;;10416742;28;20241;-76
2023/12/05 23:29:39;;;;;;;4.63;3.30;;;2.80;43.60;;;;;;10423493;28;20225;-76
2023/12/05 23:34:43;;;;;;;3.93;2.90;;;3.00;44.00;;;;;;10423600;28;20248;-76
2023/12/05 23:39:47;;;;;;;2.93;2.63;;;3.00;44.50;;;;;;10423712;28;20596;-76
2023/12/05 23:44:50;;;;;;;2.87;2.57;;;3.20;44.60;;;;;;10426180;28;20236;-75
2023/12/05 23:49:54;;;;;;;2.70;2.47;;;3.40;44.70;;;;;;10426054;28;20233;-76
2023/12/05 23:54:57;;;;;;;2.77;2.30;;;3.50;44.90;;;;;;10423519;28;20262;-76
